createdAt,value
2018-02-10T00:43:58.156Z,193.90
2018-02-10T00:46:25.585Z,180.00
2018-02-10T00:48:53.001Z,180.60
2018-02-10T00:51:20.460Z,173.45
2018-02-10T00:53:47.885Z,176.75
2018-02-10T00:56:15.310Z,200.07
2018-02-10T00:58:42.741Z,183.57
2018-02-10T01:01:10.164Z,187.68
2018-02-10T01:03:37.590Z,198.52
2018-02-10T01:06:05.078Z,191.37
2018-02-10T01:08:32.450Z,197.55
2018-02-10T01:10:59.872Z,185.43
2018-02-10T01:13:27.302Z,168.37
2018-02-10T01:15:54.720Z,186.82
2018-02-10T01:18:22.110Z,181.93
2018-02-10T01:20:49.580Z,192.23
2018-02-10T01:23:16.996Z,174.77
2018-02-10T01:25:44.411Z,192.23
2018-02-10T01:28:11.849Z,206.90
2018-02-10T01:30:39.265Z,196.73
2018-02-10T01:33:06.693Z,181.23
2018-02-10T01:35:34.123Z,181.70
2018-02-10T01:38:01.541Z,178.35
2018-02-10T01:40:28.964Z,176.43
2018-02-10T01:42:56.401Z,200.43
2018-02-10T01:45:23.832Z,177.80
2018-02-10T01:47:51.245Z,182.15
2018-02-10T01:50:22.492Z,193.37
2018-02-10T01:52:49.921Z,187.68
2018-02-10T01:55:17.336Z,181.15
2018-02-10T01:57:44.770Z,186.15
2018-02-10T02:00:12.206Z,183.30
2018-02-10T02:02:39.628Z,176.87
2018-02-10T02:05:07.050Z,182.65
2018-02-10T02:07:34.481Z,165.07
2018-02-10T02:10:01.943Z,188.43
2018-02-10T02:12:29.329Z,174.55
2018-02-10T02:14:56.749Z,179.90
2018-02-10T02:17:24.185Z,179.05
2018-02-10T02:19:51.606Z,174.18
2018-02-10T02:22:19.028Z,177.90
2018-02-10T02:24:46.460Z,183.73
2018-02-10T02:27:13.877Z,171.57
2018-02-10T02:29:41.296Z,178.02
2018-02-10T02:32:08.730Z,175.70
2018-02-10T02:34:36.153Z,170.62
2018-02-10T02:37:03.585Z,180.32
2018-02-10T02:39:31.014Z,158.65
2018-02-10T02:41:58.448Z,160.63
2018-02-10T02:44:25.878Z,170.50
2018-02-10T02:46:53.305Z,162.60
2018-02-10T02:49:20.733Z,156.40
2018-02-10T02:51:48.149Z,147.18
2018-02-10T02:54:15.574Z,173.52
2018-02-10T02:56:43.014Z,158.60
2018-02-10T02:59:10.445Z,158.63
2018-02-10T03:01:37.876Z,166.93
2018-02-10T03:04:05.301Z,167.52
2018-02-10T03:06:32.729Z,163.02
2018-02-10T03:09:00.145Z,172.35
2018-02-10T03:11:27.577Z,157.88
2018-02-10T03:13:55.018Z,165.25
2018-02-10T03:16:22.439Z,174.98
2018-02-10T03:18:49.861Z,164.68
2018-02-10T03:21:17.298Z,168.75
2018-02-10T03:23:44.708Z,169.13
2018-02-10T03:26:12.133Z,157.32
2018-02-10T03:28:39.576Z,174.87
2018-02-10T03:31:06.992Z,165.35
2018-02-10T03:33:34.417Z,177.57
2018-02-10T03:36:01.842Z,166.40
2018-02-10T03:38:29.277Z,167.45
2018-02-10T03:40:56.697Z,189.75
2018-02-10T03:43:24.121Z,185.32
2018-02-10T03:45:51.558Z,176.80
2018-02-10T03:48:18.981Z,184.98
2018-02-10T03:50:46.405Z,160.40
2018-02-10T03:53:13.848Z,171.57
2018-02-10T03:55:41.234Z,172.45
2018-02-10T03:58:08.702Z,158.23
2018-02-10T04:00:36.129Z,152.55
2018-02-10T04:03:03.550Z,171.32
2018-02-10T04:05:30.977Z,169.45
2018-02-10T04:07:58.409Z,190.35
2018-02-10T04:10:25.829Z,161.65
2018-02-10T04:12:53.264Z,163.55
2018-02-10T04:15:20.725Z,170.80
2018-02-10T04:17:48.126Z,169.37
2018-02-10T04:20:15.545Z,161.18
2018-02-10T04:22:42.981Z,165.95
2018-02-10T04:25:10.401Z,157.95
2018-02-10T04:27:37.827Z,176.05
2018-02-10T04:30:05.264Z,176.15
2018-02-10T04:32:32.684Z,161.27
2018-02-10T04:35:00.113Z,171.50
2018-02-10T04:37:27.553Z,170.85
2018-02-10T04:39:54.969Z,172.30
2018-02-10T04:42:22.393Z,172.62
2018-02-10T04:44:49.822Z,156.02
2018-02-10T04:47:17.258Z,163.48
2018-02-10T04:49:44.679Z,168.15
2018-02-10T04:52:12.121Z,159.00
2018-02-10T04:54:39.537Z,165.90
2018-02-10T04:57:06.956Z,166.77
2018-02-10T04:59:34.389Z,183.05
2018-02-10T05:02:01.806Z,170.10
2018-02-10T05:04:29.245Z,155.12
2018-02-10T05:06:56.673Z,170.23
2018-02-10T05:09:24.090Z,159.77
2018-02-10T05:11:51.529Z,157.73
2018-02-10T05:14:18.957Z,160.55
2018-02-10T05:16:46.380Z,171.80
2018-02-10T05:19:13.844Z,171.60
2018-02-10T05:21:41.293Z,162.75
2018-02-10T05:24:08.774Z,170.90
2018-02-10T05:26:37.108Z,165.50
2018-02-10T05:29:04.539Z,172.70
2018-02-10T05:31:31.971Z,164.20
2018-02-10T05:33:59.410Z,160.85
2018-02-10T05:36:26.859Z,158.95
2018-02-10T05:38:54.328Z,161.25
2018-02-10T05:41:21.770Z,156.95
2018-02-10T05:43:49.197Z,161.52
2018-02-10T05:46:16.655Z,157.57
2018-02-10T05:48:44.082Z,144.90
2018-02-10T05:51:11.511Z,148.32
2018-02-10T05:53:38.963Z,143.55
2018-02-10T05:56:06.909Z,145.68
2018-02-10T05:58:34.340Z,157.70
2018-02-10T06:01:01.772Z,139.12
2018-02-10T06:03:29.199Z,130.82
2018-02-10T06:05:57.472Z,145.95
2018-02-10T06:08:24.943Z,147.80
2018-02-10T06:10:52.368Z,140.73
2018-02-10T06:13:19.802Z,144.50
2018-02-10T06:15:47.242Z,156.55
2018-02-10T06:18:14.729Z,145.15
2018-02-10T06:20:42.225Z,136.85
2018-02-10T06:23:09.657Z,138.27
2018-02-10T06:25:37.086Z,149.55
2018-02-10T06:28:04.498Z,124.55
2018-02-10T06:30:31.929Z,136.32
2018-02-10T06:32:59.357Z,118.53
2018-02-10T06:35:27.766Z,129.73
2018-02-10T06:37:55.197Z,138.95
2018-02-10T06:40:22.656Z,155.32
2018-02-10T06:42:50.065Z,127.68
2018-02-10T06:45:17.492Z,136.95
2018-02-10T06:47:44.922Z,127.72
2018-02-10T06:50:12.337Z,136.65
2018-02-10T06:52:40.054Z,134.37
2018-02-10T06:55:07.483Z,130.80
2018-02-10T06:57:34.910Z,130.65
2018-02-10T07:00:03.129Z,148.23
2018-02-10T07:02:30.558Z,133.77
2018-02-10T07:04:57.985Z,139.40
2018-02-10T07:07:25.409Z,139.25
2018-02-10T07:09:52.845Z,137.52
2018-02-10T07:12:20.273Z,155.50
2018-02-10T07:14:47.703Z,134.37
2018-02-10T07:17:15.138Z,146.23
2018-02-10T07:19:42.524Z,146.65
2018-02-10T07:22:09.984Z,155.65
2018-02-10T07:24:37.413Z,154.85
2018-02-10T07:27:04.836Z,129.60
2018-02-10T07:29:32.266Z,139.43
2018-02-10T07:31:59.709Z,141.85
2018-02-10T07:34:27.129Z,138.07
2018-02-10T07:36:54.554Z,151.32
2018-02-10T07:39:21.990Z,150.90
2018-02-10T07:41:49.416Z,137.35
2018-02-10T07:44:16.846Z,167.87
2018-02-10T07:46:44.277Z,165.07
2018-02-10T07:49:11.701Z,174.15
2018-02-10T07:51:39.125Z,168.60
2018-02-10T07:54:06.558Z,177.43
2018-02-10T07:56:33.978Z,168.27
2018-02-10T07:59:01.413Z,174.75
2018-02-10T08:01:28.831Z,185.15
2018-02-10T08:03:56.257Z,189.40
2018-02-10T08:06:23.681Z,180.43
2018-02-10T08:08:51.113Z,184.25
2018-02-10T08:11:18.550Z,200.20
2018-02-10T08:13:45.973Z,190.10
2018-02-10T08:16:13.396Z,190.50
2018-02-10T08:18:40.829Z,182.57
2018-02-10T08:21:08.244Z,187.80
2018-02-10T08:23:35.681Z,181.82
2018-02-10T08:26:03.098Z,170.98
2018-02-10T08:28:30.526Z,185.20
2018-02-10T08:30:57.957Z,184.00
2018-02-10T08:33:25.382Z,184.35
2018-02-10T08:35:52.802Z,187.15
2018-02-10T08:38:20.245Z,174.77
2018-02-10T08:40:47.674Z,187.40
2018-02-10T08:43:15.092Z,181.80
2018-02-10T08:45:42.525Z,177.07
2018-02-10T08:48:09.959Z,181.80
2018-02-10T08:50:37.377Z,177.05
2018-02-10T08:53:04.813Z,180.55
2018-02-10T08:55:32.249Z,179.02
2018-02-10T08:57:59.673Z,180.70
2018-02-10T09:00:27.102Z,184.77
2018-02-10T09:02:54.531Z,181.90
2018-02-10T09:05:21.958Z,185.80
2018-02-10T09:07:49.381Z,188.75
2018-02-10T09:10:16.809Z,186.15
2018-02-10T09:12:44.237Z,178.85
2018-02-10T09:15:11.674Z,168.20
2018-02-10T09:17:39.100Z,189.13
2018-02-10T09:20:06.539Z,175.20
2018-02-10T09:22:33.957Z,172.05
2018-02-10T09:25:01.393Z,163.55
2018-02-10T09:27:28.816Z,192.75
2018-02-10T09:29:56.245Z,172.65
2018-02-10T09:32:23.711Z,167.18
2018-02-10T09:34:51.125Z,158.85
2018-02-10T09:37:18.565Z,160.95
2018-02-10T09:39:46.042Z,194.80
2018-02-10T09:42:13.433Z,160.95
2018-02-10T09:44:40.857Z,179.77
2018-02-10T09:47:08.290Z,162.12
2018-02-10T09:49:35.744Z,160.85
2018-02-10T09:52:03.149Z,166.15
2018-02-10T09:54:30.598Z,168.13
2018-02-10T09:56:58.028Z,140.80
2018-02-10T09:59:25.445Z,138.40
2018-02-10T10:01:52.889Z,139.75
2018-02-10T10:04:20.312Z,149.00
2018-02-10T10:06:47.741Z,130.32
2018-02-10T10:09:15.173Z,142.00
2018-02-10T10:11:42.617Z,142.27
2018-02-10T10:14:10.048Z,127.20
2018-02-10T10:16:37.491Z,156.18
2018-02-10T10:19:04.930Z,145.35
2018-02-10T10:21:32.357Z,140.18
2018-02-10T10:23:59.796Z,138.93
2018-02-10T10:26:27.233Z,111.35
2018-02-10T10:28:54.665Z,144.43
2018-02-10T10:31:22.105Z,168.13
2018-02-10T10:33:49.542Z,167.45
2018-02-10T10:36:16.989Z,134.75
2018-02-10T10:38:44.436Z,145.38
2018-02-10T10:41:11.872Z,173.70
2018-02-10T10:43:39.318Z,138.73
2018-02-10T10:46:06.732Z,122.22
2018-02-10T10:48:34.162Z,133.55
2018-02-10T10:51:01.606Z,116.15
2018-02-10T10:53:29.021Z,127.97
2018-02-10T10:55:56.445Z,122.60
2018-02-10T10:58:23.885Z,118.60
2018-02-10T11:00:51.314Z,113.07
2018-02-10T11:03:18.761Z,118.50
2018-02-10T11:05:46.185Z,117.57
2018-02-10T11:08:13.621Z,133.65
2018-02-10T11:10:41.066Z,115.12
2018-02-10T11:13:08.489Z,104.12
2018-02-10T11:15:35.913Z,112.60
2018-02-10T11:18:03.354Z,111.07
2018-02-10T11:20:30.781Z,111.47
2018-02-10T11:22:58.209Z,115.03
2018-02-10T11:25:25.649Z,116.53
2018-02-10T11:27:53.078Z,114.07
2018-02-10T11:30:20.512Z,101.85
2018-02-10T11:32:47.950Z,103.55
2018-02-10T11:35:15.393Z,117.70
2018-02-10T11:37:42.834Z,125.12
2018-02-10T11:40:10.266Z,118.22
2018-02-10T11:42:37.738Z,123.50
2018-02-10T11:45:05.165Z,120.68
2018-02-10T11:47:32.597Z,129.73
2018-02-10T11:50:00.050Z,127.38
2018-02-10T11:52:27.474Z,128.52
2018-02-10T11:54:54.900Z,126.50
2018-02-10T11:57:22.341Z,126.68
2018-02-10T11:59:49.761Z,136.00
2018-02-10T12:02:17.201Z,113.40
2018-02-10T12:04:44.644Z,109.03
2018-02-10T12:07:12.069Z,108.85
2018-02-10T12:09:39.489Z,108.87
2018-02-10T12:12:06.918Z,97.90
2018-02-10T12:14:34.345Z,104.72
2018-02-10T12:17:01.781Z,103.57
2018-02-10T12:19:29.201Z,90.32
2018-02-10T12:21:56.625Z,94.75
2018-02-10T12:24:24.065Z,78.43
2018-02-10T12:26:51.484Z,79.87
2018-02-10T12:29:18.905Z,76.47
2018-02-10T12:31:46.348Z,72.10
2018-02-10T12:34:13.784Z,71.37
2018-02-10T12:36:41.200Z,73.35
2018-02-10T12:39:08.630Z,71.32
2018-02-10T12:41:36.065Z,66.43
2018-02-10T12:44:03.485Z,68.78
2018-02-10T12:46:30.900Z,76.40
2018-02-10T12:49:03.929Z,68.30
2018-02-10T12:51:31.353Z,69.68
2018-02-10T12:53:58.790Z,69.62
2018-02-10T12:56:26.235Z,74.35
2018-02-10T12:58:53.647Z,80.68
2018-02-10T13:01:21.069Z,71.68
2018-02-10T13:03:48.490Z,78.80
2018-02-10T13:06:15.917Z,77.20
2018-02-10T13:08:43.389Z,64.85
2018-02-10T13:11:10.817Z,76.60
2018-02-10T13:13:38.237Z,73.00
2018-02-10T13:16:05.661Z,68.97
2018-02-10T13:18:33.098Z,71.32
2018-02-10T13:21:00.529Z,72.80
2018-02-10T13:23:27.968Z,67.28
2018-02-10T13:25:55.392Z,68.22
2018-02-10T13:28:22.813Z,62.90
2018-02-10T13:30:50.242Z,59.10
2018-02-10T13:33:17.689Z,67.72
2018-02-10T13:35:45.110Z,56.55
2018-02-10T13:38:12.528Z,57.53
2018-02-10T13:40:39.958Z,52.90
2018-02-10T13:43:07.373Z,47.67
2018-02-10T13:45:34.809Z,47.95
2018-02-10T13:48:02.245Z,54.10
2018-02-10T13:50:29.673Z,57.55
2018-02-10T13:52:57.102Z,51.10
2018-02-10T13:55:24.542Z,54.28
2018-02-10T13:57:51.957Z,58.33
2018-02-10T14:00:19.377Z,61.75
2018-02-10T14:02:46.819Z,59.65
2018-02-10T14:05:15.069Z,61.85
2018-02-10T14:07:42.502Z,65.00
2018-02-10T14:10:09.930Z,70.97
2018-02-10T14:12:37.353Z,60.20
2018-02-10T14:15:04.782Z,74.80
2018-02-10T14:17:32.201Z,69.87
2018-02-10T14:19:59.624Z,70.45
2018-02-10T14:22:27.058Z,71.32
2018-02-10T14:24:54.486Z,78.65
2018-02-10T14:27:21.929Z,62.80
2018-02-10T14:29:49.357Z,76.25
2018-02-10T14:32:16.777Z,91.43
2018-02-10T14:34:44.192Z,91.18
2018-02-10T14:37:11.621Z,94.28
2018-02-10T14:39:39.046Z,87.30
2018-02-10T14:42:06.472Z,94.45
2018-02-10T14:44:33.891Z,99.15
2018-02-10T14:47:01.317Z,111.72
2018-02-10T14:49:28.771Z,103.10
2018-02-10T14:51:56.181Z,104.82
2018-02-10T14:54:23.606Z,101.10
2018-02-10T14:56:51.033Z,98.37
2018-02-10T14:59:18.450Z,94.87
2018-02-10T15:01:45.865Z,97.07
2018-02-10T15:04:13.312Z,106.82
2018-02-10T15:06:40.722Z,97.37
2018-02-10T15:09:08.141Z,90.22
2018-02-10T15:11:35.568Z,86.03
2018-02-10T15:14:02.997Z,83.32
2018-02-10T15:16:30.417Z,86.90
2018-02-10T15:18:57.843Z,80.90
2018-02-10T15:21:25.270Z,77.43
2018-02-10T15:23:52.702Z,88.35
2018-02-10T15:26:20.122Z,72.85
2018-02-10T15:28:47.535Z,78.25
2018-02-10T15:31:25.625Z,77.05
2018-02-10T15:34:04.759Z,71.60
2018-02-10T15:36:32.186Z,69.78
2018-02-10T15:38:59.604Z,78.32
2018-02-10T15:41:27.041Z,72.18
2018-02-10T15:43:54.462Z,77.80
2018-02-10T15:46:21.889Z,89.00
2018-02-10T15:48:49.317Z,84.37
2018-02-10T15:51:16.745Z,75.90
2018-02-10T15:53:44.169Z,82.43
2018-02-10T15:56:11.597Z,72.90
2018-02-10T15:58:39.017Z,83.03
2018-02-10T16:01:06.437Z,83.45
2018-02-10T16:03:33.874Z,81.65
2018-02-10T16:06:01.285Z,72.25
2018-02-10T16:08:28.700Z,83.87
2018-02-10T16:10:56.133Z,86.57
2018-02-10T16:13:23.549Z,81.05
2018-02-10T16:15:50.973Z,89.75
2018-02-10T16:18:18.409Z,73.80
2018-02-10T16:20:45.833Z,80.53
2018-02-10T16:23:13.253Z,81.00
2018-02-10T16:25:40.685Z,95.28
2018-02-10T16:28:08.096Z,88.50
2018-02-10T16:30:35.517Z,82.50
2018-02-10T16:33:02.955Z,75.65
2018-02-10T16:35:30.375Z,85.57
2018-02-10T16:37:57.793Z,81.20
2018-02-10T16:40:25.221Z,94.20
2018-02-10T16:42:52.645Z,75.32
2018-02-10T16:45:20.056Z,80.90
2018-02-10T16:47:47.489Z,79.18
2018-02-10T16:50:14.910Z,75.95
2018-02-10T16:52:42.325Z,82.43
2018-02-10T16:55:09.758Z,74.72
2018-02-10T16:57:37.175Z,85.15
2018-02-10T17:00:04.597Z,86.78
2018-02-10T17:02:32.031Z,80.82
2018-02-10T17:04:59.453Z,82.75
2018-02-10T17:07:26.869Z,80.40
2018-02-10T17:09:54.301Z,81.03
2018-02-10T17:12:21.713Z,78.03
2018-02-10T17:14:49.158Z,81.45
2018-02-10T17:17:16.594Z,78.05
2018-02-10T17:19:44.013Z,74.55
2018-02-10T17:22:11.429Z,84.10
2018-02-10T17:24:38.860Z,75.70
2018-02-10T17:27:06.294Z,76.22
2018-02-10T17:29:33.713Z,80.10
2018-02-10T17:32:05.738Z,85.05
2018-02-10T17:34:33.157Z,100.10
2018-02-10T17:37:00.574Z,69.85
2018-02-10T17:39:28.001Z,82.95
2018-02-10T17:41:55.480Z,72.97
2018-02-10T17:44:22.904Z,84.47
2018-02-10T17:46:50.318Z,79.03
2018-02-10T17:49:17.745Z,91.97
2018-02-10T17:51:45.181Z,69.75
2018-02-10T17:54:12.589Z,80.32
2018-02-10T17:56:40.024Z,83.62
2018-02-10T17:59:07.451Z,71.03
2018-02-10T18:01:34.869Z,79.75
2018-02-10T18:04:02.301Z,75.85
2018-02-10T18:06:29.713Z,79.72
2018-02-10T18:08:57.130Z,74.12
2018-02-10T18:11:24.574Z,81.97
2018-02-10T18:13:51.993Z,76.37
2018-02-10T18:16:19.409Z,85.03
2018-02-10T18:18:46.845Z,70.28
2018-02-10T18:21:14.265Z,79.90
2018-02-10T18:23:41.685Z,74.22
2018-02-10T18:26:09.117Z,71.70
2018-02-10T18:28:36.544Z,75.10
2018-02-10T18:31:03.973Z,67.32
2018-02-10T18:33:31.410Z,79.62
2018-02-10T18:35:58.955Z,68.85
2018-02-10T18:38:26.379Z,75.05
2018-02-10T18:40:53.813Z,70.97
2018-02-10T18:43:21.251Z,79.72
2018-02-10T18:45:48.665Z,79.28
2018-02-10T18:48:16.132Z,78.55
2018-02-10T18:50:43.569Z,83.07
2018-02-10T18:53:11.002Z,72.37
2018-02-10T18:55:38.447Z,89.50
2018-02-10T18:58:05.918Z,75.65
2018-02-10T19:00:33.354Z,75.75
2018-02-10T19:03:00.797Z,76.80
2018-02-10T19:05:28.217Z,68.93
2018-02-10T19:07:55.650Z,72.10
2018-02-10T19:10:23.078Z,61.88
2018-02-10T19:12:50.501Z,70.18
2018-02-10T19:15:17.938Z,72.32
2018-02-10T19:17:45.370Z,70.72
2018-02-10T19:20:12.801Z,73.82
2018-02-10T19:22:40.223Z,72.78
2018-02-10T19:25:07.650Z,63.03
2018-02-10T19:27:35.089Z,97.35
2018-02-10T19:30:02.525Z,60.90
2018-02-10T19:32:30.014Z,63.65
2018-02-10T19:34:57.434Z,73.50
2018-02-10T19:37:24.845Z,69.10
2018-02-10T19:39:52.310Z,73.15
2018-02-10T19:42:19.736Z,87.25
2018-02-10T19:44:47.161Z,75.70
2018-02-10T19:47:14.594Z,75.12
2018-02-10T19:49:42.054Z,72.65
2018-02-10T19:52:09.482Z,71.37
2018-02-10T19:54:36.901Z,77.03
2018-02-10T19:57:04.321Z,76.20
2018-02-10T19:59:31.765Z,69.10
2018-02-10T20:01:59.181Z,77.07
2018-02-10T20:04:26.600Z,51.63
2018-02-10T20:06:54.030Z,61.15
2018-02-10T20:09:21.456Z,88.50
2018-02-10T20:11:48.869Z,72.70
2018-02-10T20:14:16.293Z,126.00
2018-02-10T20:16:43.717Z,64.50
2018-02-10T20:19:11.163Z,69.05
2018-02-10T20:21:38.734Z,41.20
2018-02-10T20:24:06.174Z,47.03
2018-02-10T20:26:33.610Z,43.78
2018-02-10T20:29:01.021Z,47.25
2018-02-10T20:31:28.485Z,48.58
2018-02-10T20:33:55.924Z,48.92
2018-02-10T20:36:23.341Z,38.70
2018-02-10T20:38:50.793Z,49.75
2018-02-10T20:41:19.130Z,48.05
2018-02-10T20:43:46.550Z,46.47
2018-02-10T20:46:13.991Z,49.60
2018-02-10T20:48:41.425Z,51.50
2018-02-10T20:51:08.866Z,46.97
2018-02-10T20:53:36.286Z,61.05
2018-02-10T20:56:03.702Z,47.53
2018-02-10T20:58:31.169Z,40.85
2018-02-10T21:00:58.573Z,42.47
2018-02-10T21:03:25.998Z,35.40
2018-02-10T21:05:53.430Z,39.95
2018-02-10T21:08:20.853Z,34.40
2018-02-10T21:10:48.280Z,35.92
2018-02-10T21:13:15.810Z,32.90
2018-02-10T21:15:43.251Z,34.67
2018-02-10T21:18:10.742Z,32.50
2018-02-10T21:20:38.161Z,37.67
2018-02-10T21:23:05.608Z,32.60
2018-02-10T21:25:33.038Z,38.85
2018-02-10T21:28:00.465Z,39.40
2018-02-10T21:30:27.886Z,33.67
2018-02-10T21:32:55.329Z,34.50
2018-02-10T21:35:22.742Z,28.25
2018-02-10T21:37:50.161Z,33.50
2018-02-10T21:40:17.625Z,30.15
2018-02-10T21:42:45.050Z,36.13
2018-02-10T21:45:12.475Z,36.67
2018-02-10T21:47:40.024Z,32.30
2018-02-10T21:50:07.415Z,34.22
2018-02-10T21:52:34.826Z,42.75
2018-02-10T21:55:02.270Z,35.33
2018-02-10T21:57:29.685Z,39.05
2018-02-10T21:59:57.105Z,37.90
2018-02-10T22:02:24.538Z,31.70
2018-02-10T22:04:51.973Z,37.55
2018-02-10T22:07:19.386Z,31.50
2018-02-10T22:09:46.824Z,34.08
2018-02-10T22:12:14.237Z,29.55
2018-02-10T22:14:41.653Z,32.20
2018-02-10T22:17:09.081Z,32.45
2018-02-10T22:19:36.517Z,32.53
2018-02-10T22:22:03.933Z,29.52
2018-02-10T22:24:31.349Z,29.15
2018-02-10T22:26:58.792Z,28.35
2018-02-10T22:29:26.226Z,32.67
2018-02-10T22:31:53.615Z,32.53
2018-02-10T22:34:21.086Z,30.00
2018-02-10T22:36:48.505Z,28.85
2018-02-10T22:39:15.937Z,28.98
2018-02-10T22:41:43.361Z,28.35
2018-02-10T22:44:10.789Z,30.80
2018-02-10T22:46:38.205Z,30.90
2018-02-10T22:49:05.645Z,29.70
2018-02-10T22:51:33.069Z,30.30
2018-02-10T22:54:00.494Z,28.40
2018-02-10T22:56:27.925Z,32.47
2018-02-10T22:58:55.343Z,42.62
2018-02-10T23:01:22.779Z,32.47
2018-02-10T23:03:50.194Z,36.88
2018-02-10T23:06:17.621Z,38.28
2018-02-10T23:08:45.054Z,30.92
2018-02-10T23:11:12.478Z,31.05
2018-02-10T23:13:39.901Z,36.00
2018-02-10T23:16:07.366Z,34.80
2018-02-10T23:18:34.802Z,34.40
2018-02-10T23:21:02.221Z,38.28
2018-02-10T23:23:29.633Z,33.22
2018-02-10T23:25:57.061Z,37.35
2018-02-10T23:28:25.273Z,30.52
2018-02-10T23:30:52.698Z,31.33
2018-02-10T23:33:20.133Z,30.65
2018-02-10T23:35:47.557Z,30.83
2018-02-10T23:38:14.978Z,34.10
2018-02-10T23:40:42.406Z,32.70
2018-02-10T23:43:09.838Z,35.55
2018-02-10T23:45:37.266Z,33.75
2018-02-10T23:48:04.686Z,38.17
2018-02-10T23:50:32.121Z,52.90
2018-02-10T23:52:59.542Z,42.70
2018-02-10T23:55:26.977Z,34.25
2018-02-10T23:57:54.406Z,42.65
